Terminal Aerodrome Forecast
Issued by NWS Charleston, WV

Home | Current Version | Previous Version | Text Only | Print | Product List | Glossary On
Versions: 1 2 3 4 5 6 7 8 9 10 11 12 13 14 15 16 17 18 19 20 21 22
212
FTUS41 KRLX 110538
TAFPKB
TAF
KPKB 110538Z 1106/1206 00000KT P6SM OVC070 WS020/25030KT
     FM111400 11003KT P6SM OVC060
     FM120100 17006KT P6SM -RA OVC060
     FM120400 18007KT 3SM -RA OVC015=

USA.gov is the U.S. government's official web portal to all federal, state and local government web resources and services.